Dades meteomassalio
Diari Summary for Marc 8, 2017 Units:  Metric    English   Both
« Previous Day
Next Day »
Diari Semanal Mensual Anual Personalitzat
  Maxima: Minima: Mijana:
Temperatura: 21.3 °C 8.8 °C 15.4 °C
Rosada: 10.4 °C 6.4 °C 8.6 °C
Humitat: 85 % 47 % 65 %
Velocitat del vent: 61.1 km/h 0.0 km/h 19 km/h
Racha vent: 61.1 km/h - -
Vent:- - WNW
Pressio: 1028.0 hPa 1023.6 hPa -
Pluja: 0.0 mm    
Historical Graphs
 
 
Tabular Data for Marc 8, 2017
Time Temperature Dew Point Pressure Wind Wind Speed Wind Gust Humidity Rainfall Rate (Hourly) solar Conditions
00:01 14.1 °C 8.9 °C 1023.6 hPa WNW 51.8 km/h 51.8 km/h 71 % 0.0 mm 0.0 W/m2 CLR
00:07 14.1 °C 8.9 °C 1023.6 hPa NW 61.1 km/h 61.1 km/h 71 % 0.0 mm 0.0 W/m2
00:12 14.1 °C 8.9 °C 1023.9 hPa NW 51.8 km/h 51.8 km/h 71 % 0.0 mm 0.0 W/m2 CLR
00:17 14.0 °C 8.8 °C 1023.9 hPa NNW 42.6 km/h 42.6 km/h 71 % 0.0 mm 0.0 W/m2 CLR
00:22 14.0 °C 8.8 °C 1023.9 hPa NW 40.7 km/h 40.7 km/h 71 % 0.0 mm 0.0 W/m2 CLR
00:27 14.0 °C 8.8 °C 1023.9 hPa NW 51.5 km/h 51.5 km/h 71 % 0.0 mm 0.0 W/m2 CLR
00:32 13.9 °C 9.0 °C 1024.3 hPa NNW 53.7 km/h 53.7 km/h 72 % 0.0 mm 0.0 W/m2 CLR
00:37 13.9 °C 8.9 °C 1023.9 hPa NW 51.8 km/h 51.8 km/h 72 % 0.0 mm 0.0 W/m2 CLR
00:42 13.8 °C 8.8 °C 1023.9 hPa WNW 46.3 km/h 46.3 km/h 72 % 0.0 mm 0.0 W/m2 CLR
00:47 13.7 °C 8.9 °C 1023.9 hPa West 42.6 km/h 42.6 km/h 73 % 0.0 mm 0.0 W/m2 CLR
00:52 13.6 °C 8.8 °C 1023.9 hPa NW 37.0 km/h 37.0 km/h 73 % 0.0 mm 0.0 W/m2 CLR
00:57 13.6 °C 8.8 °C 1023.9 hPa NNW 53.7 km/h 53.7 km/h 73 % 0.0 mm 0.0 W/m2 CLR
01:02 13.6 °C 8.8 °C 1024.3 hPa NNW 51.8 km/h 51.8 km/h 73 % 0.0 mm 0.0 W/m2 CLR
01:07 13.6 °C 8.8 °C 1024.3 hPa WNW 48.1 km/h 48.1 km/h 73 % 0.0 mm 0.0 W/m2 CLR
01:12 13.6 °C 8.8 °C 1024.3 hPa NW 44.4 km/h 44.4 km/h 73 % 0.0 mm 0.0 W/m2 CLR
01:17 13.6 °C 8.7 °C 1023.9 hPa WNW 51.8 km/h 51.8 km/h 72 % 0.0 mm 0.0 W/m2 CLR
01:22 13.7 °C 8.7 °C 1023.9 hPa NW 31.5 km/h 31.5 km/h 72 % 0.0 mm 0.0 W/m2 CLR
01:27 13.6 °C 8.7 °C 1023.9 hPa WNW 50.0 km/h 50.0 km/h 72 % 0.0 mm 0.0 W/m2 CLR
01:32 13.6 °C 8.7 °C 1023.9 hPa NW 33.3 km/h 33.3 km/h 72 % 0.0 mm 0.0 W/m2 CLR
01:33 13.6 °C 8.6 °C 1023.9 hPa WNW 37.0 km/h 37.0 km/h 72 % 0.0 mm 0.0 W/m2 CLR
01:38 13.5 °C 8.8 °C 1023.9 hPa NW 40.2 km/h 40.2 km/h 73 % 0.0 mm 0.0 W/m2 CLR
01:43 13.6 °C 8.6 °C 1023.9 hPa NW 50.0 km/h 50.0 km/h 72 % 0.0 mm 0.0 W/m2 CLR
01:48 13.6 °C 8.7 °C 1023.9 hPa NNW 57.4 km/h 57.4 km/h 72 % 0.0 mm 0.0 W/m2 CLR
01:53 13.6 °C 8.6 °C 1023.9 hPa NNW 35.2 km/h 35.2 km/h 72 % 0.0 mm 0.0 W/m2 CLR
01:58 13.6 °C 8.7 °C 1024.3 hPa NW 51.8 km/h 51.8 km/h 72 % 0.0 mm 0.0 W/m2 CLR
02:03 13.6 °C 8.6 °C 1024.3 hPa NW 42.6 km/h 42.6 km/h 72 % 0.0 mm 0.0 W/m2 CLR
02:08 13.6 °C 8.7 °C 1024.3 hPa NW 46.7 km/h 46.7 km/h 72 % 0.0 mm 0.0 W/m2 CLR
02:13 13.7 °C 8.8 °C 1024.3 hPa NW 46.3 km/h 46.3 km/h 72 % 0.0 mm 0.0 W/m2 CLR
02:18 13.7 °C 8.7 °C 1024.3 hPa NW 40.7 km/h 40.7 km/h 72 % 0.0 mm 0.0 W/m2 CLR
02:23 13.6 °C 8.6 °C 1024.6 hPa NW 31.5 km/h 31.5 km/h 72 % 0.0 mm 0.0 W/m2 CLR
02:28 13.6 °C 8.6 °C 1024.6 hPa NW 42.6 km/h 42.6 km/h 72 % 0.0 mm 0.0 W/m2 CLR
02:33 13.4 °C 8.5 °C 1024.6 hPa WNW 31.5 km/h 31.5 km/h 72 % 0.0 mm 0.0 W/m2 CLR
02:38 13.4 °C 8.4 °C 1024.6 hPa NNW 33.8 km/h 33.8 km/h 72 % 0.0 mm 0.0 W/m2 CLR
02:39 13.4 °C 8.4 °C 1024.6 hPa WNW 42.6 km/h 42.6 km/h 72 % 0.0 mm 0.0 W/m2 CLR
02:44 13.4 °C 8.5 °C 1024.6 hPa NNW 42.6 km/h 42.6 km/h 72 % 0.0 mm 0.0 W/m2 CLR
02:49 13.5 °C 8.6 °C 1024.6 hPa WNW 38.9 km/h 38.9 km/h 72 % 0.0 mm 0.0 W/m2 CLR
02:54 13.4 °C 8.5 °C 1024.6 hPa WNW 38.9 km/h 38.9 km/h 72 % 0.0 mm 0.0 W/m2 CLR
02:59 13.4 °C 8.5 °C 1024.6 hPa WNW 31.5 km/h 31.5 km/h 72 % 0.0 mm 0.0 W/m2 CLR
03:04 13.3 °C 8.4 °C 1024.6 hPa NW 31.5 km/h 31.5 km/h 72 % 0.0 mm 0.0 W/m2 CLR
03:09 13.3 °C 8.4 °C 1024.6 hPa WNW 42.6 km/h 42.6 km/h 72 % 0.0 mm 0.0 W/m2 CLR
03:14 13.3 °C 8.6 °C 1024.6 hPa NNW 37.0 km/h 37.0 km/h 73 % 0.0 mm 0.0 W/m2 CLR
03:19 13.2 °C 8.4 °C 1024.6 hPa NW 25.9 km/h 25.9 km/h 73 % 0.0 mm 0.0 W/m2 CLR
03:24 13.2 °C 8.4 °C 1024.6 hPa NW 31.5 km/h 31.5 km/h 73 % 0.0 mm 0.0 W/m2 CLR
03:29 13.1 °C 8.4 °C 1024.6 hPa WNW 27.8 km/h 27.8 km/h 73 % 0.0 mm 0.0 W/m2 CLR
03:34 13.2 °C 8.5 °C 1024.6 hPa NW 25.9 km/h 25.9 km/h 73 % 0.0 mm 0.0 W/m2 CLR
03:39 13.2 °C 8.4 °C 1024.6 hPa WNW 31.5 km/h 31.5 km/h 73 % 0.0 mm 0.0 W/m2 CLR
03:44 13.2 °C 8.2 °C 1024.9 hPa WNW 29.6 km/h 29.6 km/h 72 % 0.0 mm 0.0 W/m2 CLR
03:49 13.2 °C 8.3 °C 1024.6 hPa NW 35.4 km/h 35.4 km/h 72 % 0.0 mm 0.0 W/m2 CLR
03:54 13.2 °C 8.3 °C 1024.9 hPa NNW 27.8 km/h 27.8 km/h 72 % 0.0 mm 0.0 W/m2 CLR
03:59 13.2 °C 8.2 °C 1024.9 hPa West 27.8 km/h 27.8 km/h 72 % 0.0 mm 0.0 W/m2 CLR
04:05 13.2 °C 8.3 °C 1024.9 hPa WNW 27.4 km/h 27.4 km/h 72 % 0.0 mm 0.0 W/m2 CLR
04:10 13.3 °C 8.1 °C 1024.9 hPa NNW 24.1 km/h 24.1 km/h 71 % 0.0 mm 0.0 W/m2 CLR
04:15 13.2 °C 8.3 °C 1024.9 hPa WNW 27.4 km/h 27.4 km/h 72 % 0.0 mm 0.0 W/m2 CLR
04:20 13.2 °C 8.1 °C 1024.9 hPa WNW 27.4 km/h 27.4 km/h 71 % 0.0 mm 0.0 W/m2 CLR
04:25 13.1 °C 8.2 °C 1025.3 hPa NW 25.9 km/h 25.9 km/h 72 % 0.0 mm 0.0 W/m2 CLR
04:30 13.1 °C 8.2 °C 1025.3 hPa West 29.6 km/h 29.6 km/h 72 % 0.0 mm 0.0 W/m2 CLR
04:35 13.1 °C 8.1 °C 1025.3 hPa WSW 18.5 km/h 18.5 km/h 72 % 0.0 mm 0.0 W/m2 CLR
04:40 13.1 °C 8.1 °C 1025.3 hPa West 17.7 km/h 17.7 km/h 72 % 0.0 mm 0.0 W/m2 CLR
04:45 12.8 °C 8.1 °C 1025.3 hPa West 16.7 km/h 16.7 km/h 73 % 0.0 mm 0.0 W/m2 CLR
04:50 12.8 °C 8.1 °C 1025.3 hPa West 20.4 km/h 20.4 km/h 73 % 0.0 mm 0.0 W/m2 CLR
04:55 12.7 °C 7.9 °C 1025.3 hPa West 18.5 km/h 18.5 km/h 73 % 0.0 mm 0.0 W/m2 CLR
05:00 12.6 °C 8.1 °C 1025.3 hPa West 16.7 km/h 16.7 km/h 74 % 0.0 mm 0.0 W/m2 CLR
05:05 12.5 °C 8.0 °C 1025.3 hPa West 18.5 km/h 18.5 km/h 74 % 0.0 mm 0.0 W/m2 CLR
05:10 12.4 °C 7.9 °C 1025.3 hPa West 20.9 km/h 20.9 km/h 74 % 0.0 mm 0.0 W/m2 CLR
05:15 12.5 °C 8.0 °C 1025.3 hPa West 24.1 km/h 24.1 km/h 74 % 0.0 mm 0.0 W/m2 CLR
05:20 12.4 °C 7.9 °C 1025.6 hPa SSW 5.6 km/h 8.8 km/h 74 % 0.0 mm 0.0 W/m2 CLR
05:25 12.3 °C 7.8 °C 1025.6 hPa WSW 19.3 km/h 19.3 km/h 74 % 0.0 mm 0.0 W/m2 CLR
05:30 12.3 °C 7.8 °C 1025.6 hPa SW 16.7 km/h 16.7 km/h 74 % 0.0 mm 0.0 W/m2 CLR
05:35 12.2 °C 7.9 °C 1025.6 hPa SSW 8.0 km/h 8.0 km/h 75 % 0.0 mm 0.0 W/m2 CLR
05:40 12.2 °C 7.9 °C 1026.0 hPa WSW 17.7 km/h 17.7 km/h 75 % 0.0 mm 0.0 W/m2 CLR
05:45 12.2 °C 7.7 °C 1026.0 hPa West 18.5 km/h 18.5 km/h 74 % 0.0 mm 0.0 W/m2 CLR
05:50 12.3 °C 7.8 °C 1025.6 hPa WNW 20.4 km/h 20.4 km/h 74 % 0.0 mm 0.0 W/m2 CLR
05:55 12.5 °C 8.0 °C 1025.6 hPa West 29.0 km/h 29.0 km/h 74 % 0.0 mm 0.0 W/m2 CLR
06:00 12.6 °C 7.8 °C 1025.6 hPa West 25.7 km/h 25.7 km/h 73 % 0.0 mm 0.0 W/m2 CLR
06:05 12.6 °C 7.9 °C 1025.6 hPa West 25.9 km/h 25.9 km/h 73 % 0.0 mm 0.0 W/m2 CLR
06:10 12.7 °C 7.9 °C 1026.0 hPa West 18.5 km/h 18.5 km/h 73 % 0.0 mm 0.0 W/m2 CLR
06:15 12.7 °C 7.9 °C 1026.0 hPa SW 20.4 km/h 20.4 km/h 73 % 0.0 mm 0.0 W/m2 CLR
06:20 12.6 °C 7.9 °C 1026.3 hPa West 16.7 km/h 16.7 km/h 73 % 0.0 mm 0.0 W/m2 CLR
06:25 12.6 °C 7.9 °C 1026.3 hPa SW 20.4 km/h 20.4 km/h 73 % 0.0 mm 0.0 W/m2 CLR
06:30 12.6 °C 7.9 °C 1026.3 hPa WSW 14.8 km/h 14.8 km/h 73 % 0.0 mm 0.0 W/m2 CLR
06:35 12.6 °C 7.8 °C 1026.3 hPa WSW 5.6 km/h 5.6 km/h 73 % 0.0 mm 0.0 W/m2 CLR
06:40 12.5 °C 7.8 °C 1026.6 hPa WSW 7.4 km/h 7.4 km/h 73 % 0.0 mm 0.0 W/m2 CLR
06:45 12.4 °C 7.7 °C 1026.6 hPa WSW 11.1 km/h 11.1 km/h 73 % 0.0 mm 0.0 W/m2 CLR
06:50 12.4 °C 7.7 °C 1026.6 hPa WSW 11.1 km/h 11.1 km/h 73 % 0.0 mm 0.0 W/m2 CLR
06:55 12.5 °C 7.8 °C 1026.6 hPa SW 13.0 km/h 13.0 km/h 73 % 0.0 mm 0.0 W/m2 CLR
07:00 12.5 °C 7.8 °C 1026.6 hPa WSW 19.3 km/h 19.3 km/h 73 % 0.0 mm 0.0 W/m2 CLR
07:05 12.6 °C 7.8 °C 1026.6 hPa WSW 18.5 km/h 18.5 km/h 73 % 0.0 mm 0.0 W/m2 CLR
07:10 12.6 °C 7.8 °C 1026.6 hPa West 24.1 km/h 24.1 km/h 73 % 0.0 mm 0.0 W/m2 CLR
07:15 12.6 °C 7.7 °C 1026.6 hPa West 25.9 km/h 25.9 km/h 72 % 0.0 mm 5.0 W/m2 OVC
07:20 12.7 °C 7.8 °C 1026.6 hPa West 22.5 km/h 22.5 km/h 72 % 0.0 mm 5.0 W/m2 OVC
07:25 12.7 °C 7.8 °C 1027.0 hPa West 25.9 km/h 25.9 km/h 72 % 0.0 mm 0.0 W/m2 OVC
07:30 12.7 °C 7.8 °C 1027.0 hPa WNW 20.9 km/h 20.9 km/h 72 % 0.0 mm 7.0 W/m2 OVC
07:35 12.7 °C 7.8 °C 1027.0 hPa West 22.2 km/h 22.2 km/h 72 % 0.0 mm 11.0 W/m2 BKN
07:40 12.7 °C 7.7 °C 1027.0 hPa West 16.7 km/h 16.7 km/h 72 % 0.0 mm 14.0 W/m2 BKN
07:45 12.6 °C 7.7 °C 1027.0 hPa WNW 25.9 km/h 25.9 km/h 72 % 0.0 mm 21.0 W/m2 BKN
07:50 12.7 °C 7.7 °C 1027.3 hPa WNW 27.8 km/h 27.8 km/h 72 % 0.0 mm 25.0 W/m2 BKN
07:55 12.8 °C 7.8 °C 1027.3 hPa West 16.7 km/h 16.7 km/h 72 % 0.0 mm 33.0 W/m2 BKN
08:00 12.9 °C 7.8 °C 1027.3 hPa West 14.8 km/h 14.8 km/h 71 % 0.0 mm 44.0 W/m2 BKN
08:05 12.9 °C 7.8 °C 1027.3 hPa WNW 18.5 km/h 18.5 km/h 71 % 0.0 mm 49.0 W/m2 SCT
08:10 12.9 °C 7.8 °C 1027.7 hPa West 14.8 km/h 14.8 km/h 71 % 0.0 mm 58.0 W/m2 SCT
08:15 13.1 °C 7.9 °C 1027.7 hPa SW 18.5 km/h 18.5 km/h 71 % 0.0 mm 70.0 W/m2 FEW
08:20 13.2 °C 8.0 °C 1027.7 hPa SW 5.6 km/h 5.6 km/h 71 % 0.0 mm 98.0 W/m2 CLR
08:25 13.2 °C 8.1 °C 1027.7 hPa SW 5.6 km/h 5.6 km/h 71 % 0.0 mm 118.0 W/m2 CLR
08:30 13.3 °C 8.0 °C 1027.7 hPa WNW 11.1 km/h 11.1 km/h 70 % 0.0 mm 130.0 W/m2 CLR
08:35 13.5 °C 8.1 °C 1027.7 hPa WNW 27.4 km/h 27.4 km/h 70 % 0.0 mm 113.0 W/m2 CLR
08:40 13.6 °C 8.2 °C 1027.7 hPa WNW 18.5 km/h 18.5 km/h 70 % 0.0 mm 148.0 W/m2 CLR
08:45 13.6 °C 8.0 °C 1027.7 hPa West 20.4 km/h 20.4 km/h 69 % 0.0 mm 105.0 W/m2 CLR
08:50 13.7 °C 8.1 °C 1027.7 hPa West 18.5 km/h 18.5 km/h 69 % 0.0 mm 146.0 W/m2 CLR
08:55 13.8 °C 8.2 °C 1027.7 hPa West 22.2 km/h 22.2 km/h 69 % 0.0 mm 220.0 W/m2 CLR
09:00 14.0 °C 8.2 °C 1027.7 hPa West 14.8 km/h 14.8 km/h 68 % 0.0 mm 267.0 W/m2 CLR
09:05 14.2 °C 8.3 °C 1027.7 hPa WSW 24.1 km/h 24.1 km/h 68 % 0.0 mm 229.0 W/m2 CLR
09:10 14.3 °C 8.2 °C 1027.7 hPa West 29.6 km/h 29.6 km/h 67 % 0.0 mm 255.0 W/m2 CLR
09:15 14.3 °C 8.3 °C 1027.7 hPa West 31.5 km/h 31.5 km/h 67 % 0.0 mm 262.0 W/m2 CLR
09:20 14.3 °C 8.3 °C 1027.7 hPa WSW 27.8 km/h 27.8 km/h 67 % 0.0 mm 264.0 W/m2 CLR
09:25 14.4 °C 8.3 °C 1027.7 hPa West 29.0 km/h 29.0 km/h 67 % 0.0 mm 327.0 W/m2 CLR
09:26 14.4 °C 8.3 °C 1027.7 hPa WNW 29.6 km/h 29.6 km/h 67 % 0.0 mm 353.0 W/m2 CLR
09:31 14.4 °C 8.4 °C 1027.7 hPa West 24.1 km/h 24.1 km/h 67 % 0.0 mm 283.0 W/m2 CLR
09:36 14.6 °C 8.6 °C 1027.7 hPa WNW 29.6 km/h 29.6 km/h 67 % 0.0 mm 408.0 W/m2 CLR
09:41 14.7 °C 8.7 °C 1027.7 hPa West 22.5 km/h 22.5 km/h 67 % 0.0 mm 411.0 W/m2 CLR
09:46 14.8 °C 8.7 °C 1027.7 hPa WNW 31.5 km/h 31.5 km/h 67 % 0.0 mm 176.0 W/m2 CLR
09:51 14.7 °C 8.7 °C 1027.7 hPa West 24.1 km/h 24.1 km/h 67 % 0.0 mm 418.0 W/m2 CLR
09:56 14.8 °C 8.5 °C 1027.7 hPa WSW 24.1 km/h 24.1 km/h 66 % 0.0 mm 399.0 W/m2 CLR
10:01 14.8 °C 8.6 °C 1027.7 hPa West 27.8 km/h 27.8 km/h 66 % 0.0 mm 221.0 W/m2 CLR
10:06 14.9 °C 8.6 °C 1027.7 hPa SW 25.9 km/h 25.9 km/h 66 % 0.0 mm 318.0 W/m2 CLR
10:11 14.9 °C 8.4 °C 1027.7 hPa WNW 31.5 km/h 31.5 km/h 65 % 0.0 mm 223.0 W/m2 CLR
10:16 14.9 °C 8.7 °C 1027.7 hPa WNW 25.9 km/h 25.9 km/h 66 % 0.0 mm 348.0 W/m2 CLR
10:21 14.9 °C 8.7 °C 1027.7 hPa West 20.4 km/h 20.4 km/h 66 % 0.0 mm 142.0 W/m2 CLR
10:26 15.0 °C 8.4 °C 1027.7 hPa WSW 25.9 km/h 25.9 km/h 65 % 0.0 mm 302.0 W/m2 CLR
10:31 15.3 °C 8.7 °C 1027.7 hPa West 20.4 km/h 20.4 km/h 65 % 0.0 mm 476.0 W/m2 CLR
10:36 15.6 °C 8.8 °C 1027.7 hPa West 24.1 km/h 24.1 km/h 64 % 0.0 mm 529.0 W/m2 CLR
10:41 15.8 °C 9.2 °C 1027.7 hPa West 24.1 km/h 24.1 km/h 65 % 0.0 mm 501.0 W/m2 CLR
10:46 16.0 °C 9.2 °C 1027.7 hPa WNW 13.0 km/h 13.0 km/h 64 % 0.0 mm 533.0 W/m2 CLR
10:51 16.3 °C 9.5 °C 1027.7 hPa NW 20.4 km/h 20.4 km/h 64 % 0.0 mm 510.0 W/m2 CLR
10:56 16.4 °C 9.1 °C 1027.7 hPa WNW 25.7 km/h 25.7 km/h 62 % 0.0 mm 547.0 W/m2 CLR
11:01 16.4 °C 9.6 °C 1027.7 hPa NW 18.5 km/h 18.5 km/h 64 % 0.0 mm 476.0 W/m2 CLR
11:06 16.7 °C 9.6 °C 1027.7 hPa WNW 18.5 km/h 18.5 km/h 63 % 0.0 mm 599.0 W/m2 CLR
11:11 16.6 °C 9.1 °C 1027.7 hPa WNW 31.5 km/h 31.5 km/h 61 % 0.0 mm 568.0 W/m2 CLR
11:16 16.8 °C 9.2 °C 1027.7 hPa WNW 25.9 km/h 25.9 km/h 61 % 0.0 mm 538.0 W/m2 CLR
11:21 16.8 °C 8.9 °C 1028.0 hPa West 24.1 km/h 24.1 km/h 60 % 0.0 mm 506.0 W/m2 CLR
11:26 16.8 °C 8.9 °C 1028.0 hPa West 22.2 km/h 22.2 km/h 60 % 0.0 mm 621.0 W/m2 CLR
11:31 16.9 °C 8.9 °C 1027.7 hPa West 29.0 km/h 29.0 km/h 59 % 0.0 mm 538.0 W/m2 CLR
11:36 17.1 °C 9.3 °C 1028.0 hPa West 24.1 km/h 24.1 km/h 60 % 0.0 mm 629.0 W/m2 CLR
11:41 17.2 °C 9.1 °C 1027.7 hPa WNW 27.8 km/h 27.8 km/h 59 % 0.0 mm 598.0 W/m2 CLR
11:46 17.2 °C 8.9 °C 1027.7 hPa WNW 24.1 km/h 24.1 km/h 58 % 0.0 mm 613.0 W/m2 CLR
11:47 17.3 °C 9.2 °C 1027.7 hPa NW 24.1 km/h 24.1 km/h 59 % 0.0 mm 613.0 W/m2 CLR
11:52 17.4 °C 9.1 °C 1027.7 hPa West 24.1 km/h 24.1 km/h 58 % 0.0 mm 675.0 W/m2 CLR
11:57 17.6 °C 9.2 °C 1027.7 hPa WNW 22.5 km/h 22.5 km/h 58 % 0.0 mm 575.0 W/m2 CLR
12:02 17.6 °C 9.0 °C 1027.7 hPa WNW 27.8 km/h 27.8 km/h 57 % 0.0 mm 633.0 W/m2 CLR
12:07 17.7 °C 9.1 °C 1027.7 hPa WNW 20.9 km/h 20.9 km/h 57 % 0.0 mm 664.0 W/m2 CLR
12:12 17.8 °C 9.4 °C 1027.7 hPa NW 22.2 km/h 22.2 km/h 58 % 0.0 mm 679.0 W/m2 CLR
12:17 18.1 °C 9.4 °C 1027.7 hPa NW 25.9 km/h 25.9 km/h 57 % 0.0 mm 635.0 W/m2 CLR
12:22 18.0 °C 9.1 °C 1027.7 hPa WNW 25.9 km/h 25.9 km/h 56 % 0.0 mm 561.0 W/m2 CLR
12:27 18.2 °C 9.0 °C 1027.3 hPa NW 29.6 km/h 29.6 km/h 55 % 0.0 mm 649.0 W/m2 CLR
12:32 18.3 °C 8.8 °C 1027.3 hPa West 29.0 km/h 29.0 km/h 54 % 0.0 mm 635.0 W/m2 CLR
12:37 18.6 °C 9.4 °C 1027.7 hPa NW 18.5 km/h 18.5 km/h 55 % 0.0 mm 679.0 W/m2 CLR
12:42 18.6 °C 8.8 °C 1027.3 hPa WSW 20.4 km/h 20.4 km/h 53 % 0.0 mm 673.0 W/m2 CLR
12:47 18.6 °C 9.1 °C 1027.7 hPa WNW 25.7 km/h 25.7 km/h 54 % 0.0 mm 668.0 W/m2 CLR
12:52 18.8 °C 9.6 °C 1027.3 hPa WNW 20.9 km/h 20.9 km/h 55 % 0.0 mm 668.0 W/m2 CLR
12:57 18.9 °C 9.7 °C 1027.3 hPa WNW 22.2 km/h 22.2 km/h 55 % 0.0 mm 694.0 W/m2 CLR
13:02 19.0 °C 9.8 °C 1027.3 hPa WNW 29.6 km/h 29.6 km/h 55 % 0.0 mm 689.0 W/m2 CLR
13:07 19.3 °C 9.4 °C 1027.3 hPa NW 22.5 km/h 22.5 km/h 53 % 0.0 mm 691.0 W/m2 CLR
13:12 19.1 °C 9.6 °C 1027.3 hPa NW 18.5 km/h 18.5 km/h 54 % 0.0 mm 664.0 W/m2 CLR
13:17 19.2 °C 9.6 °C 1027.3 hPa NNW 24.1 km/h 24.1 km/h 54 % 0.0 mm 673.0 W/m2 CLR
13:22 19.3 °C 9.5 °C 1027.0 hPa NW 22.2 km/h 22.2 km/h 53 % 0.0 mm 686.0 W/m2 CLR
13:27 19.3 °C 9.8 °C 1027.0 hPa NW 20.4 km/h 20.4 km/h 54 % 0.0 mm 654.0 W/m2 CLR
13:32 19.4 °C 9.6 °C 1027.0 hPa NW 22.2 km/h 22.2 km/h 53 % 0.0 mm 666.0 W/m2 CLR
13:37 19.7 °C 9.9 °C 1027.0 hPa WNW 20.9 km/h 20.9 km/h 53 % 0.0 mm 696.0 W/m2 CLR
13:42 19.9 °C 9.8 °C 1026.6 hPa WNW 22.5 km/h 22.5 km/h 52 % 0.0 mm 701.0 W/m2 CLR
13:47 19.9 °C 9.5 °C 1026.6 hPa NW 25.9 km/h 25.9 km/h 51 % 0.0 mm 679.0 W/m2 CLR
13:52 19.8 °C 9.4 °C 1026.6 hPa NNW 20.9 km/h 20.9 km/h 51 % 0.0 mm 694.0 W/m2 CLR
13:57 20.1 °C 10.4 °C 1026.6 hPa NW 18.5 km/h 18.5 km/h 54 % 0.0 mm 700.0 W/m2 CLR
14:02 20.3 °C 9.5 °C 1026.6 hPa NNW 27.8 km/h 27.8 km/h 50 % 0.0 mm 705.0 W/m2 CLR
14:07 20.3 °C 9.8 °C 1026.3 hPa NW 18.5 km/h 18.5 km/h 51 % 0.0 mm 668.0 W/m2 CLR
14:12 20.4 °C 9.7 °C 1026.3 hPa NW 25.9 km/h 25.9 km/h 50 % 0.0 mm 640.0 W/m2 CLR
14:17 20.5 °C 10.0 °C 1026.3 hPa NW 27.4 km/h 27.4 km/h 51 % 0.0 mm 564.0 W/m2 CLR
14:22 20.4 °C 9.7 °C 1026.3 hPa NW 24.1 km/h 24.1 km/h 50 % 0.0 mm 652.0 W/m2 CLR
14:27 20.6 °C 10.1 °C 1026.3 hPa NW 20.4 km/h 20.4 km/h 51 % 0.0 mm 601.0 W/m2 CLR
14:32 20.6 °C 9.8 °C 1026.0 hPa NW 22.2 km/h 22.2 km/h 50 % 0.0 mm 606.0 W/m2 CLR
14:37 20.9 °C 10.1 °C 1026.0 hPa WNW 22.2 km/h 22.2 km/h 50 % 0.0 mm 661.0 W/m2 CLR
14:42 21.0 °C 9.6 °C 1026.0 hPa NW 22.2 km/h 22.2 km/h 48 % 0.0 mm 635.0 W/m2 CLR
14:47 20.9 °C 9.5 °C 1026.0 hPa NW 24.1 km/h 24.1 km/h 48 % 0.0 mm 417.0 W/m2 CLR
14:52 20.8 °C 9.7 °C 1026.0 hPa NNW 31.5 km/h 31.5 km/h 49 % 0.0 mm 580.0 W/m2 CLR
14:57 20.8 °C 10.3 °C 1026.0 hPa NW 22.2 km/h 22.2 km/h 51 % 0.0 mm 541.0 W/m2 CLR
15:02 20.9 °C 10.1 °C 1026.0 hPa NW 22.2 km/h 22.2 km/h 50 % 0.0 mm 603.0 W/m2 CLR
15:07 21.0 °C 10.2 °C 1026.0 hPa WNW 20.4 km/h 20.4 km/h 50 % 0.0 mm 550.0 W/m2 CLR
15:12 21.0 °C 9.9 °C 1026.0 hPa NW 18.5 km/h 18.5 km/h 49 % 0.0 mm 288.0 W/m2 CLR
15:17 20.9 °C 9.8 °C 1026.0 hPa WNW 20.4 km/h 20.4 km/h 49 % 0.0 mm 192.0 W/m2 CLR
15:18 20.8 °C 9.4 °C 1026.0 hPa WNW 16.7 km/h 16.7 km/h 48 % 0.0 mm 192.0 W/m2 CLR
15:23 20.7 °C 9.6 °C 1026.0 hPa WNW 14.8 km/h 14.8 km/h 49 % 0.0 mm 429.0 W/m2 CLR
15:28 20.9 °C 10.1 °C 1026.0 hPa NNW 16.7 km/h 16.7 km/h 50 % 0.0 mm 492.0 W/m2 CLR
15:33 20.9 °C 9.5 °C 1026.0 hPa NNW 20.4 km/h 20.4 km/h 48 % 0.0 mm 362.0 W/m2 CLR
15:38 20.8 °C 9.4 °C 1026.0 hPa NW 18.5 km/h 18.5 km/h 48 % 0.0 mm 408.0 W/m2 CLR
15:43 20.9 °C 9.8 °C 1026.0 hPa NNW 20.4 km/h 20.4 km/h 49 % 0.0 mm 425.0 W/m2 CLR
15:48 21.1 °C 9.9 °C 1025.6 hPa NW 18.5 km/h 18.5 km/h 49 % 0.0 mm 601.0 W/m2 CLR
15:53 21.3 °C 9.8 °C 1025.6 hPa NNW 18.5 km/h 18.5 km/h 48 % 0.0 mm 471.0 W/m2 CLR
15:58 21.3 °C 10.1 °C 1025.6 hPa WNW 22.2 km/h 22.2 km/h 49 % 0.0 mm 404.0 W/m2 CLR
16:03 21.3 °C 10.2 °C 1025.6 hPa NW 18.5 km/h 18.5 km/h 49 % 0.0 mm 487.0 W/m2 CLR
16:08 21.3 °C 9.5 °C 1025.6 hPa NNW 25.9 km/h 25.9 km/h 47 % 0.0 mm 308.0 W/m2 CLR
16:13 21.1 °C 9.6 °C 1025.6 hPa NW 18.5 km/h 18.5 km/h 48 % 0.0 mm 311.0 W/m2 CLR
16:18 21.2 °C 9.8 °C 1025.6 hPa NNW 18.5 km/h 18.5 km/h 48 % 0.0 mm 346.0 W/m2 CLR
16:23 21.3 °C 10.1 °C 1025.6 hPa NW 18.5 km/h 18.5 km/h 49 % 0.0 mm 376.0 W/m2 CLR
16:28 21.3 °C 9.6 °C 1025.6 hPa NW 14.8 km/h 14.8 km/h 47 % 0.0 mm 362.0 W/m2 CLR
16:33 21.3 °C 9.9 °C 1025.6 hPa NNW 18.5 km/h 18.5 km/h 48 % 0.0 mm 348.0 W/m2 CLR
16:38 21.3 °C 9.9 °C 1025.3 hPa NW 18.5 km/h 18.5 km/h 48 % 0.0 mm 352.0 W/m2 CLR
16:43 21.3 °C 9.5 °C 1025.6 hPa WNW 22.2 km/h 22.2 km/h 47 % 0.0 mm 406.0 W/m2 CLR
16:48 21.3 °C 9.8 °C 1025.3 hPa NW 25.9 km/h 25.9 km/h 48 % 0.0 mm 376.0 W/m2 CLR
16:53 21.3 °C 9.5 °C 1025.3 hPa NW 16.7 km/h 16.7 km/h 47 % 0.0 mm 295.0 W/m2 CLR
16:58 21.2 °C 9.4 °C 1025.3 hPa North 18.5 km/h 18.5 km/h 47 % 0.0 mm 229.0 W/m2 CLR
17:03 21.1 °C 10.0 °C 1025.3 hPa NNW 5.6 km/h 5.6 km/h 49 % 0.0 mm 216.0 W/m2 CLR
17:08 21.0 °C 9.6 °C 1025.3 hPa NNW 9.7 km/h 9.7 km/h 48 % 0.0 mm 165.0 W/m2 CLR
17:13 20.9 °C 9.4 °C 1025.3 hPa Calm     48 % 0.0 mm 165.0 W/m2 CLR
17:18 20.9 °C 9.8 °C 1025.3 hPa NNW 5.6 km/h 5.6 km/h 49 % 0.0 mm 151.0 W/m2 CLR
17:23 20.8 °C 9.7 °C 1025.3 hPa Calm     49 % 0.0 mm 207.0 W/m2 CLR
17:28 20.8 °C 9.4 °C 1025.3 hPa NNW 14.8 km/h 14.8 km/h 48 % 0.0 mm 155.0 W/m2 CLR
17:33 20.8 °C 9.4 °C 1025.3 hPa WNW 5.6 km/h 5.6 km/h 48 % 0.0 mm 158.0 W/m2 CLR
17:38 20.7 °C 9.9 °C 1025.3 hPa NNW 3.2 km/h 3.2 km/h 50 % 0.0 mm 134.0 W/m2 CLR
17:43 20.7 °C 9.3 °C 1025.3 hPa NW 5.6 km/h 5.6 km/h 48 % 0.0 mm 181.0 W/m2 CLR
17:48 20.8 °C 9.4 °C 1025.3 hPa West 5.6 km/h 5.6 km/h 48 % 0.0 mm 158.0 W/m2 CLR
17:53 20.8 °C 9.4 °C 1025.3 hPa WNW 5.6 km/h 5.6 km/h 48 % 0.0 mm 118.0 W/m2 CLR
17:58 20.7 °C 9.3 °C 1025.3 hPa Calm     48 % 0.0 mm 97.0 W/m2 CLR
18:03 20.6 °C 9.2 °C 1025.3 hPa WNW 3.7 km/h 3.7 km/h 48 % 0.0 mm 98.0 W/m2 CLR
18:08 20.6 °C 9.8 °C 1025.3 hPa NW 5.6 km/h 5.6 km/h 50 % 0.0 mm 70.0 W/m2 FEW
18:13 20.3 °C 8.9 °C 1025.3 hPa NW 3.7 km/h 3.7 km/h 48 % 0.0 mm 67.0 W/m2 SCT
18:18 20.2 °C 9.4 °C 1025.3 hPa WNW 1.6 km/h 1.6 km/h 50 % 0.0 mm 56.0 W/m2 SCT
18:23 19.9 °C 9.2 °C 1025.3 hPa Calm     50 % 0.0 mm 44.0 W/m2 BKN
18:28 19.8 °C 9.1 °C 1025.3 hPa Calm     50 % 0.0 mm 37.0 W/m2 BKN
18:29 19.8 °C 9.3 °C 1025.3 hPa Calm     51 % 0.0 mm 37.0 W/m2 BKN
18:34 19.7 °C 9.2 °C 1025.3 hPa Calm     51 % 0.0 mm 28.0 W/m2 BKN
18:39 19.4 °C 8.7 °C 1025.3 hPa Calm     50 % 0.0 mm 21.0 W/m2 BKN
18:44 19.3 °C 8.9 °C 1025.3 hPa Calm     51 % 0.0 mm 16.0 W/m2 BKN
18:49 19.2 °C 8.8 °C 1025.3 hPa Calm     51 % 0.0 mm 11.0 W/m2 BKN
18:54 18.9 °C 8.9 °C 1025.3 hPa Calm     52 % 0.0 mm 7.0 W/m2 BKN
18:59 18.7 °C 8.9 °C 1025.6 hPa Calm     53 % 0.0 mm 0.0 W/m2 OVC
19:04 18.2 °C 9.0 °C 1025.6 hPa Calm     55 % 0.0 mm 0.0 W/m2 CLR
19:09 17.9 °C 9.1 °C 1025.6 hPa Calm     56 % 0.0 mm 0.0 W/m2 CLR
19:14 17.6 °C 8.7 °C 1025.6 hPa WSW 3.7 km/h 3.7 km/h 56 % 0.0 mm 0.0 W/m2 CLR
19:19 17.4 °C 8.8 °C 1025.3 hPa WSW 5.6 km/h 5.6 km/h 57 % 0.0 mm 0.0 W/m2 CLR
19:24 17.5 °C 8.6 °C 1025.6 hPa WSW 4.8 km/h 4.8 km/h 56 % 0.0 mm 0.0 W/m2 CLR
19:29 17.8 °C 8.3 °C 1025.6 hPa WSW 5.6 km/h 5.6 km/h 54 % 0.0 mm 0.0 W/m2 CLR
19:34 18.1 °C 8.6 °C 1025.6 hPa West 6.4 km/h 6.4 km/h 54 % 0.0 mm 0.0 W/m2 CLR
19:39 18.2 °C 8.4 °C 1025.6 hPa West 5.6 km/h 5.6 km/h 53 % 0.0 mm 0.0 W/m2 CLR
19:44 18.1 °C 8.6 °C 1025.6 hPa West 7.4 km/h 7.4 km/h 54 % 0.0 mm 0.0 W/m2 CLR
19:49 17.7 °C 8.6 °C 1025.6 hPa West 5.6 km/h 5.6 km/h 55 % 0.0 mm 0.0 W/m2 CLR
19:54 17.3 °C 9.0 °C 1025.6 hPa Calm     58 % 0.0 mm 0.0 W/m2 CLR
19:59 16.7 °C 8.6 °C 1025.6 hPa Calm     59 % 0.0 mm 0.0 W/m2 CLR
20:04 16.1 °C 8.8 °C 1026.0 hPa Calm     62 % 0.0 mm 0.0 W/m2 CLR
20:09 15.5 °C 8.7 °C 1026.0 hPa Calm     64 % 0.0 mm 0.0 W/m2 CLR
20:14 15.0 °C 8.9 °C 1026.0 hPa Calm     67 % 0.0 mm 0.0 W/m2 CLR
20:19 14.6 °C 8.7 °C 1026.0 hPa Calm     68 % 0.0 mm 0.0 W/m2 CLR
20:24 14.3 °C 8.7 °C 1026.0 hPa Calm     69 % 0.0 mm 0.0 W/m2 CLR
20:29 14.0 °C 8.6 °C 1026.3 hPa Calm     70 % 0.0 mm 0.0 W/m2 CLR
20:35 13.7 °C 8.6 °C 1026.3 hPa Calm     71 % 0.0 mm 0.0 W/m2 CLR
20:40 13.3 °C 8.4 °C 1026.3 hPa Calm     72 % 0.0 mm 0.0 W/m2 CLR
20:45 12.9 °C 8.4 °C 1026.3 hPa Calm     74 % 0.0 mm 0.0 W/m2 CLR
20:50 12.6 °C 8.3 °C 1026.3 hPa Calm     75 % 0.0 mm 0.0 W/m2 CLR
20:55 12.3 °C 8.2 °C 1026.3 hPa Calm     76 % 0.0 mm 0.0 W/m2 CLR
21:00 12.1 °C 8.2 °C 1026.3 hPa Calm     77 % 0.0 mm 0.0 W/m2 CLR
21:01 12.1 °C 8.2 °C 1026.3 hPa Calm     77 % 0.0 mm 0.0 W/m2 CLR
21:06 11.9 °C 8.1 °C 1026.3 hPa Calm     77 % 0.0 mm 0.0 W/m2 CLR
21:07 11.9 °C 8.1 °C 1026.3 hPa Calm     77 % 0.0 mm 0.0 W/m2 CLR
21:12 11.8 °C 8.1 °C 1026.3 hPa Calm     78 % 0.0 mm 0.0 W/m2 CLR
21:17 11.7 °C 7.9 °C 1026.3 hPa Calm     78 % 0.0 mm 0.0 W/m2 CLR
21:22 11.5 °C 7.8 °C 1026.3 hPa Calm     78 % 0.0 mm 0.0 W/m2 CLR
21:27 11.4 °C 7.7 °C 1026.6 hPa Calm     78 % 0.0 mm 0.0 W/m2 CLR
21:32 11.3 °C 7.8 °C 1026.6 hPa Calm     79 % 0.0 mm 0.0 W/m2 CLR
21:37 11.3 °C 7.6 °C 1026.6 hPa Calm     78 % 0.0 mm 0.0 W/m2 CLR
21:42 11.3 °C 7.6 °C 1026.6 hPa Calm     78 % 0.0 mm 0.0 W/m2 CLR
21:47 11.2 °C 7.7 °C 1026.6 hPa Calm     79 % 0.0 mm 0.0 W/m2 CLR
21:52 11.1 °C 7.4 °C 1026.6 hPa Calm     78 % 0.0 mm 0.0 W/m2 CLR
21:57 11.1 °C 7.4 °C 1026.6 hPa Calm     78 % 0.0 mm 0.0 W/m2 CLR
22:02 11.1 °C 7.4 °C 1026.6 hPa Calm     78 % 0.0 mm 0.0 W/m2 CLR
22:07 10.9 °C 7.4 °C 1027.0 hPa Calm     79 % 0.0 mm 0.0 W/m2 CLR
22:12 10.6 °C 7.3 °C 1027.0 hPa Calm     80 % 0.0 mm 0.0 W/m2 CLR
22:17 10.5 °C 7.2 °C 1027.0 hPa Calm     80 % 0.0 mm 0.0 W/m2 CLR
22:22 10.4 °C 7.2 °C 1027.0 hPa Calm     80 % 0.0 mm 0.0 W/m2 CLR
22:27 10.3 °C 7.1 °C 1027.0 hPa Calm     80 % 0.0 mm 0.0 W/m2 CLR
22:32 10.2 °C 7.1 °C 1027.0 hPa Calm     81 % 0.0 mm 0.0 W/m2 CLR
22:37 10.3 °C 7.2 °C 1027.0 hPa Calm     81 % 0.0 mm 0.0 W/m2 CLR
22:42 10.3 °C 7.2 °C 1027.0 hPa Calm     81 % 0.0 mm 0.0 W/m2 CLR
22:47 10.1 °C 7.0 °C 1027.0 hPa Calm     81 % 0.0 mm 0.0 W/m2 CLR
22:52 9.8 °C 6.7 °C 1027.0 hPa Calm     81 % 0.0 mm 0.0 W/m2 CLR
22:57 9.7 °C 6.7 °C 1027.0 hPa Calm     82 % 0.0 mm 0.0 W/m2 CLR
23:02 9.5 °C 6.8 °C 1027.0 hPa Calm     83 % 0.0 mm 0.0 W/m2 CLR
23:07 9.4 °C 6.7 °C 1027.0 hPa Calm     83 % 0.0 mm 0.0 W/m2 CLR
23:12 9.3 °C 6.7 °C 1027.0 hPa Calm     84 % 0.0 mm 0.0 W/m2 CLR
23:17 9.2 °C 6.6 °C 1027.0 hPa Calm     84 % 0.0 mm 0.0 W/m2 CLR
23:22 9.1 °C 6.5 °C 1027.0 hPa Calm     84 % 0.0 mm 0.0 W/m2 CLR
23:27 9.1 °C 6.7 °C 1027.0 hPa Calm     85 % 0.0 mm 0.0 W/m2 CLR
23:32 9.1 °C 6.7 °C 1027.3 hPa Calm     85 % 0.0 mm 0.0 W/m2 CLR
23:37 9.1 °C 6.5 °C 1027.3 hPa Calm     84 % 0.0 mm 0.0 W/m2 CLR
23:42 8.9 °C 6.6 °C 1027.0 hPa Calm     85 % 0.0 mm 0.0 W/m2 CLR
23:47 8.8 °C 6.4 °C 1027.0 hPa Calm     85 % 0.0 mm 0.0 W/m2 CLR
23:52 8.9 °C 6.5 °C 1027.3 hPa SW 3.2 km/h 3.2 km/h 85 % 0.0 mm 0.0 W/m2 CLR
23:57 8.9 °C 6.5 °C 1027.3 hPa SW 5.6 km/h 5.6 km/h 85 % 0.0 mm 0.0 W/m2 CLR
Lo Temps de Massalio
Compliments of Weather Underground - 1.25 mb